createdAt,value
2022-08-03T00:01:19.594Z,2.60
2022-08-03T00:04:06.984Z,2.93
2022-08-03T00:06:53.550Z,2.77
2022-08-03T00:09:40.053Z,3.03
2022-08-03T00:12:26.502Z,2.73
2022-08-03T00:15:16.355Z,3.00
2022-08-03T00:18:03.483Z,3.07
2022-08-03T00:20:49.767Z,2.77
2022-08-03T00:23:52.373Z,2.70
2022-08-03T00:26:39.335Z,2.73
2022-08-03T00:29:25.916Z,2.30
2022-08-03T00:32:12.174Z,2.50
2022-08-03T00:34:59.263Z,2.33
2022-08-03T00:37:45.561Z,2.40
2022-08-03T00:40:32.151Z,2.87
2022-08-03T00:43:18.622Z,2.30
2022-08-03T00:46:04.955Z,2.63
2022-08-03T00:48:52.172Z,2.60
2022-08-03T00:51:38.659Z,2.43
2022-08-03T00:54:25.687Z,2.83
2022-08-03T00:57:12.177Z,2.60
2022-08-03T01:00:00.162Z,2.53
2022-08-03T01:02:47.515Z,2.50
2022-08-03T01:05:44.299Z,2.50
2022-08-03T01:08:50.867Z,2.70
2022-08-03T01:12:00.659Z,2.33
2022-08-03T01:15:12.312Z,3.10
2022-08-03T01:18:10.446Z,2.57
2022-08-03T01:21:00.828Z,2.60
2022-08-03T01:24:18.286Z,2.57
2022-08-03T01:27:11.630Z,2.60
2022-08-03T01:30:09.064Z,2.60
2022-08-03T01:33:09.352Z,2.40
2022-08-03T01:36:10.214Z,2.83
2022-08-03T01:39:00.490Z,2.70
2022-08-03T01:41:53.793Z,2.77
2022-08-03T01:44:44.993Z,3.37
2022-08-03T01:47:32.728Z,2.90
2022-08-03T01:50:23.014Z,2.97
2022-08-03T01:53:11.417Z,2.90
2022-08-03T01:55:59.651Z,3.10
2022-08-03T01:58:48.276Z,2.97
2022-08-03T02:02:28.326Z,2.77
2022-08-03T02:04:45.270Z,2.50
2022-08-03T02:07:34.357Z,2.70
2022-08-03T02:10:35.538Z,3.13
2022-08-03T02:13:24.558Z,2.83
2022-08-03T02:16:12.799Z,3.17
2022-08-03T02:19:01.446Z,2.17
2022-08-03T02:21:56.721Z,2.90
2022-08-03T02:24:50.923Z,2.50
2022-08-03T02:27:43.746Z,2.83
2022-08-03T02:30:39.094Z,2.60
2022-08-03T02:33:30.246Z,6.57
2022-08-03T02:36:21.927Z,7.03
2022-08-03T02:39:11.680Z,3.57
2022-08-03T02:42:03.444Z,3.17
2022-08-03T02:44:51.306Z,2.70
2022-08-03T02:47:53.198Z,2.83
2022-08-03T02:50:44.435Z,2.63
2022-08-03T02:53:31.757Z,3.17
2022-08-03T02:56:19.163Z,3.47
2022-08-03T02:59:06.970Z,2.50
2022-08-03T03:01:55.374Z,2.70
2022-08-03T03:05:52.562Z,2.83
2022-08-03T03:07:51.998Z,2.67
2022-08-03T03:10:40.868Z,3.03
2022-08-03T03:13:30.356Z,2.70
2022-08-03T03:16:17.877Z,3.03
2022-08-03T03:19:04.901Z,2.70
2022-08-03T03:21:52.279Z,2.83
2022-08-03T03:24:41.528Z,2.80
2022-08-03T03:27:28.736Z,2.93
2022-08-03T03:30:16.447Z,2.90
2022-08-03T03:33:02.947Z,3.10
2022-08-03T03:35:51.553Z,3.07
2022-08-03T03:38:38.025Z,2.73
2022-08-03T03:41:24.550Z,3.10
2022-08-03T03:44:11.205Z,3.00
2022-08-03T03:46:58.148Z,2.43
2022-08-03T03:49:45.474Z,3.50
2022-08-03T03:52:32.809Z,3.03
2022-08-03T03:55:19.278Z,2.90
2022-08-03T03:58:06.297Z,3.30
2022-08-03T04:00:53.866Z,3.30
2022-08-03T04:03:40.339Z,3.37
2022-08-03T04:06:45.255Z,3.20
2022-08-03T04:09:53.616Z,3.23
2022-08-03T04:12:50.433Z,3.30
2022-08-03T04:15:39.762Z,2.70
2022-08-03T04:18:29.736Z,3.33
2022-08-03T04:21:19.227Z,3.33
2022-08-03T04:24:09.007Z,3.03
2022-08-03T04:26:57.702Z,2.57
2022-08-03T04:29:49.183Z,4.17
2022-08-03T04:32:40.882Z,2.97
2022-08-03T04:36:01.926Z,3.00
2022-08-03T04:38:51.138Z,3.10
2022-08-03T04:42:07.212Z,3.10
2022-08-03T04:44:47.725Z,2.93
2022-08-03T04:47:34.739Z,3.70
2022-08-03T04:50:21.982Z,2.83
2022-08-03T04:53:23.570Z,2.60
2022-08-03T04:56:10.081Z,2.93
2022-08-03T04:58:56.546Z,2.67
2022-08-03T05:01:43.444Z,2.90
2022-08-03T05:04:30.217Z,3.23
2022-08-03T05:07:24.153Z,2.87
2022-08-03T05:10:14.886Z,2.70
2022-08-03T05:13:02.808Z,3.03
2022-08-03T05:15:49.397Z,2.90
2022-08-03T05:18:36.043Z,2.80
2022-08-03T05:21:22.714Z,2.50
2022-08-03T05:24:08.926Z,2.50
2022-08-03T05:26:55.190Z,2.70
2022-08-03T05:29:41.852Z,2.58
2022-08-03T05:32:28.467Z,2.65
2022-08-03T05:36:02.021Z,2.90
2022-08-03T05:38:28.298Z,3.05
2022-08-03T05:41:22.974Z,3.33
2022-08-03T05:44:10.639Z,3.08
2022-08-03T05:46:57.019Z,3.33
2022-08-03T05:49:43.655Z,3.15
2022-08-03T05:52:30.682Z,3.22
2022-08-03T05:55:17.701Z,3.20
2022-08-03T05:58:04.331Z,3.30
2022-08-03T06:00:51.353Z,2.95
2022-08-03T06:03:37.771Z,3.07
2022-08-03T06:06:25.369Z,3.37
2022-08-03T06:09:13.765Z,3.60
2022-08-03T06:12:00.229Z,3.30
2022-08-03T06:14:46.786Z,3.30
2022-08-03T06:17:37.728Z,3.50
2022-08-03T06:20:27.387Z,3.03
2022-08-03T06:23:17.711Z,3.70
2022-08-03T06:26:04.630Z,4.07
2022-08-03T06:28:51.367Z,3.30
2022-08-03T06:31:39.678Z,4.17
2022-08-03T06:34:33.596Z,3.83
2022-08-03T06:37:21.570Z,3.80
2022-08-03T06:40:08.408Z,3.40
2022-08-03T06:42:55.451Z,4.00
2022-08-03T06:45:42.453Z,3.60
2022-08-03T06:48:28.942Z,3.10
2022-08-03T06:51:15.419Z,3.23
2022-08-03T06:54:01.720Z,3.10
2022-08-03T06:56:48.592Z,3.00
2022-08-03T07:00:09.141Z,3.27
2022-08-03T07:02:41.484Z,4.00
2022-08-03T07:05:28.367Z,3.20
2022-08-03T07:08:15.618Z,2.87
2022-08-03T07:11:01.921Z,3.70
2022-08-03T07:13:48.446Z,3.10
2022-08-03T07:16:35.027Z,3.00
2022-08-03T07:19:21.652Z,3.07
2022-08-03T07:22:08.750Z,3.03
2022-08-03T07:24:56.745Z,2.67
2022-08-03T07:27:46.023Z,3.38
2022-08-03T07:30:36.526Z,2.65
2022-08-03T07:33:22.763Z,3.33
2022-08-03T07:36:09.089Z,3.20
2022-08-03T07:38:55.401Z,3.03
2022-08-03T07:41:41.546Z,3.90
2022-08-03T07:44:28.245Z,2.58
2022-08-03T07:47:25.815Z,3.25
2022-08-03T07:50:22.984Z,3.25
2022-08-03T07:53:09.494Z,2.85
2022-08-03T07:55:56.921Z,3.20
2022-08-03T07:58:43.439Z,3.10
2022-08-03T08:01:29.841Z,2.40
2022-08-03T08:04:16.796Z,2.30
2022-08-03T08:07:03.328Z,2.20
2022-08-03T08:09:49.585Z,2.30
2022-08-03T08:12:36.406Z,1.90
2022-08-03T08:15:23.358Z,1.95
2022-08-03T08:18:09.805Z,2.00
2022-08-03T08:20:56.213Z,1.90
2022-08-03T08:23:46.248Z,2.10
2022-08-03T08:26:44.180Z,1.98
2022-08-03T08:29:30.654Z,2.30
2022-08-03T08:32:17.025Z,2.20
2022-08-03T08:35:08.006Z,2.22
2022-08-03T08:37:54.622Z,2.55
2022-08-03T08:40:40.946Z,1.77
2022-08-03T08:43:28.164Z,2.15
2022-08-03T08:46:22.837Z,1.90
2022-08-03T08:49:12.112Z,2.05
2022-08-03T08:52:01.014Z,1.83
2022-08-03T08:54:47.914Z,1.75
2022-08-03T08:57:43.564Z,1.60
2022-08-03T09:00:31.120Z,1.60
2022-08-03T09:03:26.191Z,1.60
2022-08-03T09:06:16.885Z,1.60
2022-08-03T09:09:03.542Z,1.80
2022-08-03T09:11:52.432Z,1.58
2022-08-03T09:15:14.736Z,1.60
2022-08-03T09:18:03.156Z,1.95
2022-08-03T09:20:49.557Z,1.60
2022-08-03T09:24:02.219Z,1.98
2022-08-03T09:26:52.238Z,1.75
2022-08-03T09:29:40.343Z,1.70
2022-08-03T09:32:26.957Z,2.00
2022-08-03T09:35:14.760Z,1.63
2022-08-03T09:38:26.098Z,1.67
2022-08-03T09:41:18.685Z,1.65
2022-08-03T09:44:05.141Z,1.50
2022-08-03T09:46:53.941Z,1.60
2022-08-03T09:49:41.609Z,1.70
2022-08-03T09:52:50.019Z,2.00
2022-08-03T09:56:32.746Z,1.60
2022-08-03T09:59:00.299Z,1.75
2022-08-03T10:01:46.601Z,1.50
2022-08-03T10:04:33.779Z,1.60
2022-08-03T10:07:22.664Z,1.73
2022-08-03T10:10:29.060Z,1.75
2022-08-03T10:13:19.102Z,1.80
2022-08-03T10:16:22.021Z,1.90
2022-08-03T10:19:11.509Z,1.73
2022-08-03T10:22:04.120Z,1.52
2022-08-03T10:24:59.820Z,1.75
2022-08-03T10:27:50.827Z,1.80
2022-08-03T10:30:41.054Z,1.60
2022-08-03T10:33:51.834Z,1.77
2022-08-03T10:36:39.980Z,1.45
2022-08-03T10:39:29.679Z,1.80
2022-08-03T10:42:16.176Z,1.50
2022-08-03T10:45:09.562Z,1.75
2022-08-03T10:47:57.591Z,1.70
2022-08-03T10:50:44.304Z,1.50
2022-08-03T10:53:40.252Z,1.50
2022-08-03T10:56:51.349Z,1.90
2022-08-03T10:59:46.652Z,1.67
2022-08-03T11:03:04.179Z,1.38
2022-08-03T11:05:52.175Z,1.60
2022-08-03T11:08:38.612Z,1.60
2022-08-03T11:11:26.420Z,1.70
2022-08-03T11:14:21.381Z,1.88
2022-08-03T11:17:14.189Z,1.60
2022-08-03T11:20:01.226Z,1.45
2022-08-03T11:22:53.971Z,1.40
2022-08-03T11:26:08.419Z,1.70
2022-08-03T11:29:27.970Z,1.65
2022-08-03T11:32:40.159Z,1.63
2022-08-03T11:35:35.914Z,1.50
2022-08-03T11:38:24.587Z,1.60
2022-08-03T11:41:44.885Z,1.40
2022-08-03T11:44:50.779Z,1.70
2022-08-03T11:47:50.658Z,1.67
2022-08-03T11:50:37.981Z,1.95
2022-08-03T11:53:24.472Z,1.52
2022-08-03T11:56:12.998Z,1.58
2022-08-03T11:59:18.568Z,1.45
2022-08-03T12:02:16.867Z,1.65
2022-08-03T12:05:03.635Z,1.50
2022-08-03T12:08:04.284Z,1.75
2022-08-03T12:10:54.306Z,2.03
2022-08-03T12:14:35.821Z,1.55
2022-08-03T12:16:54.415Z,1.40
2022-08-03T12:19:44.672Z,1.75
2022-08-03T12:22:37.221Z,1.42
2022-08-03T12:25:38.623Z,1.83
2022-08-03T12:28:36.972Z,1.73
2022-08-03T12:31:25.057Z,2.00
2022-08-03T12:34:12.062Z,1.70
2022-08-03T12:36:59.232Z,1.50
2022-08-03T12:40:02.056Z,1.60
2022-08-03T12:42:50.495Z,1.83
2022-08-03T12:45:36.962Z,1.50
2022-08-03T12:48:23.560Z,1.67
2022-08-03T12:51:14.218Z,1.80
2022-08-03T12:54:02.051Z,1.73
2022-08-03T12:57:08.335Z,1.70
2022-08-03T12:59:55.906Z,1.50
2022-08-03T13:02:46.352Z,1.88
2022-08-03T13:05:44.559Z,1.60
2022-08-03T13:08:30.942Z,1.85
2022-08-03T13:11:53.628Z,1.85
2022-08-03T13:14:33.370Z,1.65
2022-08-03T13:17:20.132Z,1.60
2022-08-03T13:20:07.308Z,1.63
2022-08-03T13:22:56.021Z,1.77
2022-08-03T13:25:55.262Z,1.67
2022-08-03T13:28:42.622Z,2.20
2022-08-03T13:31:29.290Z,1.40
2022-08-03T13:34:18.703Z,1.80
2022-08-03T13:37:10.217Z,1.42
2022-08-03T13:39:59.027Z,1.77
2022-08-03T13:42:47.189Z,1.90
2022-08-03T13:45:33.730Z,1.90
2022-08-03T13:48:35.785Z,1.63
2022-08-03T13:51:23.478Z,1.52
2022-08-03T13:54:09.878Z,1.75
2022-08-03T13:58:01.146Z,1.45
2022-08-03T14:00:04.562Z,1.70
2022-08-03T14:02:50.790Z,1.85
2022-08-03T14:05:38.597Z,2.10
2022-08-03T14:08:25.134Z,1.75
2022-08-03T14:11:12.068Z,1.70
2022-08-03T14:13:59.120Z,1.70
2022-08-03T14:16:45.652Z,1.70
2022-08-03T14:19:52.533Z,1.75
2022-08-03T14:22:40.280Z,1.63
2022-08-03T14:25:26.860Z,1.58
2022-08-03T14:28:13.333Z,1.90
2022-08-03T14:30:59.911Z,1.85
2022-08-03T14:33:46.474Z,2.10
2022-08-03T14:36:33.024Z,1.80
2022-08-03T14:39:19.201Z,1.90
2022-08-03T14:42:06.091Z,1.80
2022-08-03T14:44:52.255Z,1.70
2022-08-03T14:50:10.361Z,1.80
2022-08-03T14:50:50.730Z,1.60
2022-08-03T14:53:37.792Z,1.48
2022-08-03T14:56:24.114Z,1.90
2022-08-03T14:59:10.515Z,2.17
2022-08-03T15:02:06.230Z,1.63
2022-08-03T15:04:54.202Z,1.58
2022-08-03T15:07:40.526Z,1.88
2022-08-03T15:10:27.190Z,1.63
2022-08-03T15:13:31.046Z,1.75
2022-08-03T15:16:17.391Z,1.83
2022-08-03T15:19:04.898Z,1.70
2022-08-03T15:22:10.237Z,1.90
2022-08-03T15:24:59.536Z,1.70
2022-08-03T15:28:04.094Z,1.88
2022-08-03T15:30:54.665Z,1.73
2022-08-03T15:33:41.100Z,1.80
2022-08-03T15:36:27.743Z,1.67
2022-08-03T15:39:14.316Z,1.67
2022-08-03T15:42:00.860Z,1.50
2022-08-03T15:44:47.179Z,1.75
2022-08-03T15:47:33.447Z,2.13
2022-08-03T15:50:19.885Z,1.88
2022-08-03T15:53:06.203Z,1.60
2022-08-03T15:55:52.448Z,1.52
2022-08-03T15:59:03.435Z,1.85
2022-08-03T16:01:48.461Z,1.50
2022-08-03T16:04:34.999Z,1.90
2022-08-03T16:07:41.373Z,1.80
2022-08-03T16:10:48.127Z,1.58
2022-08-03T16:14:13.119Z,1.70
2022-08-03T16:16:41.558Z,1.58
2022-08-03T16:19:32.824Z,1.67
2022-08-03T16:22:20.179Z,1.60
2022-08-03T16:25:13.769Z,2.13
2022-08-03T16:28:08.047Z,1.63
2022-08-03T16:30:59.867Z,1.67
2022-08-03T16:33:46.145Z,1.67
2022-08-03T16:36:34.913Z,1.60
2022-08-03T16:39:21.461Z,1.77
2022-08-03T16:42:08.004Z,1.70
2022-08-03T16:44:54.616Z,1.80
2022-08-03T16:47:40.857Z,1.70
2022-08-03T16:50:27.391Z,1.50
2022-08-03T16:53:16.788Z,1.73
2022-08-03T16:56:09.530Z,1.90
2022-08-03T16:58:56.646Z,2.05
2022-08-03T17:01:46.203Z,1.48
2022-08-03T17:04:33.995Z,1.73
2022-08-03T17:07:21.526Z,1.90
2022-08-03T17:10:09.270Z,1.88
2022-08-03T17:12:55.582Z,1.80
2022-08-03T17:15:57.939Z,1.60
2022-08-03T17:19:02.091Z,1.85
2022-08-03T17:22:09.092Z,1.50
2022-08-03T17:24:58.262Z,1.88
2022-08-03T17:28:48.490Z,1.70
2022-08-03T17:31:23.188Z,2.10
2022-08-03T17:34:19.405Z,1.77
2022-08-03T17:37:06.417Z,1.80
2022-08-03T17:40:11.619Z,1.60
2022-08-03T17:44:13.510Z,2.10
2022-08-03T17:46:12.171Z,1.60
2022-08-03T17:48:58.608Z,1.90
2022-08-03T17:51:57.554Z,1.55
2022-08-03T17:55:57.277Z,1.40
2022-08-03T17:58:25.657Z,2.03
2022-08-03T18:02:06.150Z,1.55
2022-08-03T18:04:45.214Z,1.50
2022-08-03T18:07:47.065Z,1.65
2022-08-03T18:10:36.365Z,1.88
2022-08-03T18:14:01.103Z,1.52
2022-08-03T18:17:06.132Z,1.98
2022-08-03T18:20:02.028Z,1.92
2022-08-03T18:22:55.571Z,3.25
2022-08-03T18:25:49.551Z,3.47
2022-08-03T18:28:40.874Z,1.92
2022-08-03T18:31:59.486Z,2.80
2022-08-03T18:34:35.168Z,2.42
2022-08-03T18:37:25.574Z,2.10
2022-08-03T18:40:13.166Z,2.53
2022-08-03T18:43:08.025Z,2.08
2022-08-03T18:45:58.344Z,2.13
2022-08-03T18:48:59.430Z,1.60
2022-08-03T18:52:03.621Z,1.45
2022-08-03T18:55:14.053Z,1.75
2022-08-03T18:58:19.717Z,1.60
2022-08-03T19:01:57.948Z,2.20
2022-08-03T19:04:29.335Z,2.20
2022-08-03T19:07:26.059Z,1.98
2022-08-03T19:10:15.668Z,2.03
2022-08-03T19:13:30.760Z,1.77
2022-08-03T19:16:35.846Z,1.60
2022-08-03T19:19:27.195Z,1.48
2022-08-03T19:22:32.929Z,2.00
2022-08-03T19:25:19.629Z,1.80
2022-08-03T19:28:07.134Z,1.80
2022-08-03T19:30:56.558Z,1.52
2022-08-03T19:33:57.578Z,1.77
2022-08-03T19:36:44.994Z,1.85
2022-08-03T19:39:33.714Z,1.60
2022-08-03T19:42:27.901Z,1.80
2022-08-03T19:45:21.272Z,1.50
2022-08-03T19:48:11.686Z,1.80
2022-08-03T19:50:59.092Z,2.70
2022-08-03T19:53:49.237Z,1.90
2022-08-03T19:56:41.944Z,1.83
2022-08-03T19:59:29.565Z,1.92
2022-08-03T20:02:17.487Z,1.70
2022-08-03T20:08:21.082Z,1.90
2022-08-03T20:11:09.003Z,2.08
2022-08-03T20:13:58.144Z,2.15
2022-08-03T20:16:45.491Z,1.95
2022-08-03T20:19:35.098Z,1.70
2022-08-03T20:22:27.859Z,1.80
2022-08-03T20:25:20.816Z,1.92
2022-08-03T20:28:14.120Z,2.17
2022-08-03T20:31:02.440Z,2.53
2022-08-03T20:33:49.362Z,2.30
2022-08-03T20:36:36.623Z,2.65
2022-08-03T20:39:24.813Z,2.08
2022-08-03T20:42:14.087Z,1.90
2022-08-03T20:45:13.827Z,2.28
2022-08-03T20:48:15.999Z,2.30
2022-08-03T20:51:19.349Z,2.15
2022-08-03T20:54:23.052Z,2.08
2022-08-03T20:57:14.449Z,2.30
2022-08-03T21:00:07.704Z,1.90
2022-08-03T21:02:54.571Z,2.25
2022-08-03T21:05:51.135Z,2.00
2022-08-03T21:08:46.924Z,1.87
2022-08-03T21:11:50.578Z,2.33
2022-08-03T21:13:08.515Z,1.58
2022-08-03T21:14:52.511Z,2.17
2022-08-03T21:17:46.911Z,2.00
2022-08-03T21:20:34.749Z,1.80
2022-08-03T21:23:40.240Z,2.27
2022-08-03T21:26:32.983Z,2.17
2022-08-03T21:29:20.154Z,2.17
2022-08-03T21:32:07.532Z,2.30
2022-08-03T21:34:55.030Z,2.70
2022-08-03T21:37:42.720Z,2.20
2022-08-03T21:40:29.141Z,2.00
2022-08-03T21:43:15.846Z,2.07
2022-08-03T21:46:05.390Z,2.00
2022-08-03T21:48:56.302Z,1.90
2022-08-03T21:51:42.887Z,2.00
2022-08-03T21:54:35.016Z,2.03
2022-08-03T21:57:25.113Z,2.00
2022-08-03T22:00:17.785Z,2.03
2022-08-03T22:03:17.397Z,2.10
2022-08-03T22:06:05.109Z,2.00
2022-08-03T22:08:52.827Z,2.00
2022-08-03T22:11:39.274Z,1.90
2022-08-03T22:14:25.759Z,2.13
2022-08-03T22:17:12.895Z,2.10
2022-08-03T22:20:19.456Z,2.40
2022-08-03T22:23:07.178Z,2.30
2022-08-03T22:25:56.890Z,1.90
2022-08-03T22:28:43.801Z,1.93
2022-08-03T22:31:57.434Z,1.90
2022-08-03T22:34:42.436Z,2.03
2022-08-03T22:37:31.588Z,2.13
2022-08-03T22:40:18.079Z,1.90
2022-08-03T22:43:06.044Z,2.30
2022-08-03T22:46:10.540Z,2.30
2022-08-03T22:48:59.698Z,2.00
2022-08-03T22:51:47.172Z,2.30
2022-08-03T22:54:35.348Z,1.90
2022-08-03T22:57:22.150Z,2.17
2022-08-03T23:00:11.579Z,1.90
2022-08-03T23:03:00.219Z,1.97
2022-08-03T23:06:02.367Z,2.40
2022-08-03T23:08:50.386Z,2.30
2022-08-03T23:11:45.768Z,2.10
2022-08-03T23:14:38.451Z,2.57
2022-08-03T23:17:29.857Z,2.10
2022-08-03T23:20:16.914Z,2.03
2022-08-03T23:23:05.064Z,2.17
2022-08-03T23:25:51.954Z,1.80
2022-08-03T23:28:39.269Z,2.20
2022-08-03T23:31:31.470Z,2.13
2022-08-03T23:34:36.651Z,2.03
2022-08-03T23:37:24.908Z,2.37
2022-08-03T23:40:13.709Z,1.80
2022-08-03T23:43:01.891Z,3.10
2022-08-03T23:45:49.474Z,1.97
2022-08-03T23:48:36.002Z,2.07
2022-08-03T23:51:31.454Z,2.00
2022-08-03T23:54:23.713Z,2.37
2022-08-03T23:57:20.730Z,2.03
